Time;durP1;ratioP1;P1;durP2;ratioP2;P2;SDS_P1;SDS_P2;PMS_P1;PMS_P2;Temp;Humidity;BMP_temperature;BMP_pressure;BME280_temperature;BME280_humidity;BME280_pressure;Samples;Min_cycle;Max_cycle;Signal;HPM_P1;HPM_P2
2023/07/02 00:04:15;;;;;;;0.60;0.60;;;;;;;20.43;62.61;96212.97;10300017;28;20422;-31
2023/07/02 00:09:16;;;;;;;0.60;0.57;;;;;;;20.32;62.61;96215.69;10299891;28;20067;-30
2023/07/02 00:14:16;;;;;;;0.70;0.70;;;;;;;20.27;62.61;96207.31;10311718;28;20130;-30
2023/07/02 00:19:17;;;;;;;0.93;0.50;;;;;;;20.25;62.44;96216.66;10292328;28;20368;-30
2023/07/02 00:24:18;;;;;;;1.05;0.60;;;;;;;20.24;62.86;96214.97;10300874;28;20039;-31
2023/07/02 00:29:18;;;;;;;0.60;0.57;;;;;;;20.23;62.48;96219.22;10291520;28;20569;-32
2023/07/02 00:34:19;;;;;;;0.70;0.60;;;;;;;20.22;62.48;96216.69;10314574;28;20042;-31
2023/07/02 00:39:19;;;;;;;0.77;0.60;;;;;;;20.22;62.56;96214.16;10289963;28;20039;-30
2023/07/02 00:44:20;;;;;;;1.50;0.80;;;;;;;20.44;62.98;96203.63;10298878;28;20062;-31
2023/07/02 00:49:21;;;;;;;0.77;0.70;;;;;;;20.55;62.87;96201.78;10296024;28;20559;-30
2023/07/02 00:54:21;;;;;;;0.40;0.40;;;;;;;20.52;62.66;96214.50;10298752;28;20438;-31
2023/07/02 00:59:22;;;;;;;1.97;0.40;;;;;;;20.40;62.31;96213.00;10304791;28;20042;-30
2023/07/02 01:04:27;;;;;;;1.27;0.60;;;;;;;20.32;62.37;96213.16;10290548;28;20096;-30
2023/07/02 01:09:27;;;;;;;0.70;0.70;;;;;;;20.28;62.60;96217.44;10296894;28;20030;-30
2023/07/02 01:14:33;;;;;;;0.70;0.50;;;;;;;20.27;62.34;96220.84;10288994;28;20034;-30
2023/07/02 01:19:51;;;;;;;0.45;0.45;;;;;;;20.24;62.60;96209.88;10304374;28;20042;-31
2023/07/02 01:24:52;;;;;;;0.73;0.65;;;;;;;20.23;62.50;96213.28;10289957;28;20035;-30
2023/07/02 01:29:53;;;;;;;0.60;0.60;;;;;;;20.23;62.55;96208.19;10305608;28;20073;-31
2023/07/02 01:34:54;;;;;;;0.70;0.50;;;;;;;20.29;63.06;96218.28;10301288;28;20046;-30
2023/07/02 01:39:54;;;;;;;1.77;0.50;;;;;;;20.49;63.19;96223.06;10295433;28;20038;-30
2023/07/02 01:44:54;;;;;;;1.07;0.90;;;;;;;20.57;62.63;96221.19;10288573;28;20467;-30
2023/07/02 01:49:55;;;;;;;0.73;0.50;;;;;;;20.49;62.46;96223.06;10296466;28;20030;-31
2023/07/02 01:54:57;;;;;;;0.55;0.55;;;;;;;20.38;62.35;96224.91;10314298;28;20498;-31
2023/07/02 01:59:58;;;;;;;0.60;0.60;;;;;;;20.32;62.19;96228.41;10296218;28;20050;-30
2023/07/02 02:04:59;;;;;;;0.50;0.50;;;;;;;20.29;62.30;96223.38;10305810;28;20039;-31
2023/07/02 02:09:59;;;;;;;1.37;0.60;;;;;;;20.25;62.54;96229.38;10302608;28;20038;-30
2023/07/02 02:15:00;;;;;;;0.77;0.67;;;;;;;20.25;62.34;96234.47;10291504;28;20064;-30
2023/07/02 02:20:00;;;;;;;0.40;0.40;;;;;;;20.24;62.30;96245.47;10304489;28;20042;-30
2023/07/02 02:25:00;;;;;;;0.80;0.60;;;;;;;20.22;62.46;96237.03;10297658;28;20445;-30
2023/07/02 02:30:02;;;;;;;0.60;0.60;;;;;;;20.34;62.79;96247.03;10297901;28;20031;-30
2023/07/02 02:35:05;;;;;;;3.85;0.75;;;;;;;20.53;62.78;96254.34;10304454;28;20039;-30
2023/07/02 02:40:09;;;;;;;0.85;0.70;;;;;;;20.57;62.54;96251.72;10297494;28;20110;-30
2023/07/02 02:45:10;;;;;;;0.60;0.50;;;;;;;20.47;62.49;96255.28;10303272;28;20168;-30
2023/07/02 02:50:12;;;;;;;1.70;0.77;;;;;;;20.38;62.31;96260.50;10294229;28;20119;-30
2023/07/02 02:55:13;;;;;;;0.40;0.40;;;;;;;20.33;62.34;96255.53;10306617;28;20030;-30
2023/07/02 03:00:13;;;;;;;0.63;0.63;;;;;;;20.20;62.14;96249.78;10294649;28;20057;-31
2023/07/02 03:05:16;;;;;;;0.70;0.70;;;;;;;20.27;62.42;96260.69;10306271;28;20043;-31
2023/07/02 03:10:16;;;;;;;0.60;0.60;;;;;;;20.27;62.38;96270.84;10292688;28;20504;-30
2023/07/02 03:15:17;;;;;;;0.77;0.70;;;;;;;20.26;62.54;96266.66;10309123;28;20126;-30
2023/07/02 03:20:18;;;;;;;0.80;0.65;;;;;;;20.26;62.50;96279.34;10302077;28;20046;-31
2023/07/02 03:25:18;;;;;;;1.88;1.33;;;;;;;20.44;62.80;96270.59;10289983;28;20042;-30
2023/07/02 03:30:18;;;;;;;2.57;1.77;;;;;;;20.58;62.52;96278.88;10285914;28;20042;-30
2023/07/02 03:35:19;;;;;;;1.73;1.17;;;;;;;20.57;62.04;96277.16;10302653;28;20757;-31
2023/07/02 03:40:19;;;;;;;1.97;1.17;;;;;;;20.47;62.18;96280.72;10295132;28;20082;-31
2023/07/02 03:45:19;;;;;;;1.13;1.03;;;;;;;20.38;61.84;96284.25;10297174;28;20309;-30
2023/07/02 03:50:20;;;;;;;1.00;0.90;;;;;;;20.33;62.09;96283.50;10306407;28;20313;-31
2023/07/02 03:55:20;;;;;;;0.85;0.85;;;;;;;20.31;62.42;96280.97;10300145;28;20043;-33
2023/07/02 04:00:21;;;;;;;1.03;0.90;;;;;;;20.29;62.59;96282.69;10301517;28;20039;-30
2023/07/02 04:05:21;;;;;;;1.77;1.20;;;;;;;20.28;62.28;96291.16;10299803;28;20042;-30
2023/07/02 04:10:21;;;;;;;2.43;1.30;;;;;;;20.27;62.30;96293.75;10300965;28;20705;-31
2023/07/02 04:15:24;;;;;;;1.10;1.00;;;;;;;20.27;62.13;96306.44;10306964;28;20027;-30
2023/07/02 04:20:25;;;;;;;5.38;3.33;;;;;;;20.48;61.74;96315.44;10291769;28;20035;-31
2023/07/02 04:25:25;;;;;;;4.20;3.28;;;;;;;20.58;61.08;96319.56;10300110;28;20038;-31
2023/07/02 04:30:26;;;;;;;3.93;2.17;;;;;;;20.56;61.41;96321.25;10299655;28;20380;-31
2023/07/02 04:35:26;;;;;;;3.23;2.03;;;;;;;20.48;61.55;96317.97;10303796;28;20031;-31
2023/07/02 04:40:27;;;;;;;3.70;2.80;;;;;;;20.38;61.87;96320.69;10291428;28;20065;-30
2023/07/02 04:45:31;;;;;;;2.53;1.55;;;;;;;20.33;61.86;96311.47;10298843;28;20529;-30
2023/07/02 04:50:32;;;;;;;3.22;1.98;;;;;;;20.31;62.50;96330.97;10291186;28;20031;-31
2023/07/02 04:55:32;;;;;;;4.23;2.83;;;;;;;20.31;61.78;96333.50;10297400;28;20038;-31
2023/07/02 05:00:32;;;;;;;4.73;2.60;;;;;;;20.30;61.98;96342.00;10298297;28;20062;-30
2023/07/02 05:05:33;;;;;;;3.03;2.53;;;;;;;20.28;61.81;96346.25;10290721;28;20050;-30
2023/07/02 05:10:33;;;;;;;6.93;4.70;;;;;;;20.31;62.02;96338.59;10305411;28;20483;-31
2023/07/02 05:15:34;;;;;;;11.60;8.13;;;;;;;20.52;60.38;96350.16;10298202;28;20418;-30
2023/07/02 05:20:34;;;;;;;11.77;8.27;;;;;;;20.57;60.44;96343.28;10297600;28;20046;-30
2023/07/02 05:25:34;;;;;;;8.10;5.57;;;;;;;20.54;60.66;96356.06;10297523;28;20410;-31
2023/07/02 05:30:35;;;;;;;7.70;4.73;;;;;;;20.44;61.35;96367.22;10297395;28;20042;-31
2023/07/02 05:35:35;;;;;;;6.50;5.00;;;;;;;20.37;61.67;96369.03;10296708;28;20026;-30
2023/07/02 05:40:35;;;;;;;6.10;4.33;;;;;;;20.33;61.72;96372.47;10297406;28;20038;-31
2023/07/02 05:45:36;;;;;;;7.97;4.80;;;;;;;20.30;61.65;96377.59;10288891;28;20034;-31
2023/07/02 05:50:36;;;;;;;7.30;4.50;;;;;;;20.30;61.91;96380.13;10304384;28;20032;-30
2023/07/02 05:55:37;;;;;;;6.75;5.40;;;;;;;20.29;61.63;96386.06;10296409;28;20035;-30
2023/07/02 06:00:38;;;;;;;7.72;4.20;;;;;;;20.29;61.55;96388.63;10290318;28;20042;-31
2023/07/02 06:05:39;;;;;;;9.88;7.80;;;;;;;20.36;61.29;96392.75;10295263;28;20783;-30
2023/07/02 06:10:39;;;;;;;13.57;10.33;;;;;;;20.54;60.29;96389.13;10294590;28;20046;-30
2023/07/02 06:15:40;;;;;;;10.97;7.97;;;;;;;20.58;60.42;96398.41;10302240;28;20045;-31
2023/07/02 06:20:40;;;;;;;10.40;7.18;;;;;;;20.50;61.00;96395.13;10310033;28;20061;-30
2023/07/02 06:25:40;;;;;;;9.93;6.50;;;;;;;20.45;60.96;96403.69;10292794;28;20043;-30
2023/07/02 06:30:41;;;;;;;8.47;6.13;;;;;;;20.39;61.42;96412.19;10303200;28;20031;-30
2023/07/02 06:35:41;;;;;;;11.60;8.30;;;;;;;20.37;61.32;96422.41;10296037;28;20027;-31
2023/07/02 06:40:41;;;;;;;11.70;6.47;;;;;;;20.34;61.52;96418.19;10316768;28;20810;-30
2023/07/02 06:45:42;;;;;;;23.17;14.87;;;;;;;20.56;58.52;96423.00;10300713;28;20035;-31
2023/07/02 06:50:45;;;;;;;33.60;18.73;;;;;;;20.52;55.37;96436.63;10300783;28;20031;-30
2023/07/02 06:55:46;;;;;;;32.70;20.58;;;;;;;20.44;54.66;96435.88;10311091;28;20022;-30
2023/07/02 07:00:46;;;;;;;30.03;19.77;;;;;;;20.45;54.35;96424.84;10309521;28;20034;-30
2023/07/02 07:05:47;;;;;;;31.70;19.38;;;;;;;20.49;53.92;96441.75;10288523;28;20443;-30
2023/07/02 07:10:47;;;;;;;36.17;21.50;;;;;;;20.42;53.86;96435.06;10305580;28;20477;-30
2023/07/02 07:15:48;;;;;;;37.90;22.50;;;;;;;20.37;53.72;96445.31;10301652;28;20051;-30
2023/07/02 07:20:48;;;;;;;40.33;20.88;;;;;;;20.34;53.20;96443.63;10309929;28;20030;-31
2023/07/02 07:25:48;;;;;;;32.45;20.05;;;;;;;20.33;54.01;96443.66;10320237;28;20045;-30
2023/07/02 07:30:49;;;;;;;33.13;19.93;;;;;;;20.40;53.67;96446.94;10316857;28;20403;-31
2023/07/02 07:35:49;;;;;;;37.30;21.17;;;;;;;20.38;54.02;96439.34;10315442;28;20297;-30
2023/07/02 07:40:49;;;;;;;35.43;22.90;;;;;;;20.38;54.10;96434.25;10308194;28;20146;-30
2023/07/02 07:45:50;;;;;;;37.77;22.27;;;;;;;20.36;53.61;96438.53;10300749;28;20295;-31
2023/07/02 07:50:50;;;;;;;37.47;21.80;;;;;;;20.36;53.41;96434.28;10307696;28;20554;-31
2023/07/02 07:55:51;;;;;;;35.55;23.55;;;;;;;20.44;53.89;96435.03;10311867;28;20488;-31
2023/07/02 08:00:51;;;;;;;34.30;21.40;;;;;;;20.49;54.31;96433.28;10305785;28;20576;-30
2023/07/02 08:05:52;;;;;;;34.08;23.27;;;;;;;20.54;54.39;96427.28;10303946;28;20479;-31
2023/07/02 08:10:52;;;;;;;37.10;23.23;;;;;;;20.43;54.52;96431.66;10299534;28;21091;-31
2023/07/02 08:15:52;;;;;;;30.45;21.75;;;;;;;20.52;53.75;96431.53;10302073;28;20046;-31
2023/07/02 08:20:53;;;;;;;37.23;23.50;;;;;;;20.40;55.35;96436.75;10300769;28;20453;-30
2023/07/02 08:25:53;;;;;;;32.13;20.60;;;;;;;20.36;57.30;96441.06;10300409;28;20812;-30
2023/07/02 08:30:54;;;;;;;33.63;20.67;;;;;;;20.32;57.65;96434.31;10293080;28;20301;-30
2023/07/02 08:35:54;;;;;;;31.77;21.65;;;;;;;20.30;58.12;96438.59;10297910;28;20036;-30
2023/07/02 08:40:55;;;;;;;34.72;22.02;;;;;;;20.51;55.38;96441.72;10300472;28;20078;-30
2023/07/02 08:45:56;;;;;;;38.08;23.65;;;;;;;20.57;54.01;96445.03;10306066;28;20642;-31
2023/07/02 08:50:56;;;;;;;37.63;22.58;;;;;;;20.66;53.56;96446.63;10305158;28;20077;-31
2023/07/02 08:55:56;;;;;;;35.73;22.90;;;;;;;20.64;53.68;96449.19;10305442;28;20065;-30
2023/07/02 09:01:05;;;;;;;32.30;21.45;;;;;;;20.63;53.81;96447.50;10300070;28;20282;-30
2023/07/02 09:06:07;;;;;;;31.92;21.38;;;;;;;20.58;53.81;96449.28;10308915;28;20117;-31
2023/07/02 09:11:11;;;;;;;30.85;22.15;;;;;;;20.58;54.10;96446.72;10309113;28;20034;-30
2023/07/02 09:16:28;;;;;;;32.10;20.98;;;;;;;20.65;53.82;96455.94;10297574;28;20030;-30
2023/07/02 09:21:40;;;;;;;34.05;20.65;;;;;;;20.61;53.84;96440.75;10306268;28;20061;-31
2023/07/02 09:26:51;;;;;;;31.95;20.70;;;;;;;20.63;53.71;96450.03;10305041;28;20372;-30
2023/07/02 09:31:52;;;;;;;33.20;20.30;;;;;;;20.59;53.41;96448.41;10302403;28;20034;-31
2023/07/02 09:36:53;;;;;;;33.10;19.35;;;;;;;20.67;52.56;96456.78;10312698;28;20092;-31
2023/07/02 09:41:55;;;;;;;32.70;18.20;;;;;;;20.66;52.42;96447.47;10337962;28;20022;-30
2023/07/02 09:47:02;;;;;;;29.83;17.90;;;;;;;20.65;52.73;96440.69;10330168;28;20057;-30
2023/07/02 09:52:10;;;;;;;29.88;18.85;;;;;;;20.61;53.11;96436.50;10348760;28;20034;-30
2023/07/02 09:57:10;;;;;;;29.63;17.60;;;;;;;20.62;53.09;96439.91;10336328;28;21148;-31
2023/07/02 10:02:12;;;;;;;30.50;16.95;;;;;;;20.64;52.67;96441.53;10331323;28;20031;-30
2023/07/02 10:07:25;;;;;;;23.95;16.27;;;;;;;20.71;52.78;96449.97;10340218;28;20045;-31
2023/07/02 10:12:28;;;;;;;26.25;16.80;;;;;;;20.47;55.30;96458.72;10313173;28;20125;-30
2023/07/02 10:17:33;;;;;;;26.55;17.10;;;;;;;20.39;57.08;96452.88;10343323;28;20030;-31
2023/07/02 10:22:53;;;;;;;30.38;17.08;;;;;;;20.52;54.58;96454.44;10323024;28;20030;-31
2023/07/02 10:27:54;;;;;;;29.80;16.83;;;;;;;20.61;55.25;96451.78;10296371;28;20114;-31
2023/07/02 10:32:54;;;;;;;26.63;16.08;;;;;;;20.59;55.46;96448.41;10297323;28;20042;-30
2023/07/02 10:37:55;;;;;;;24.00;17.07;;;;;;;20.51;56.24;96444.25;10310359;28;20034;-31
2023/07/02 10:42:56;;;;;;;31.08;17.20;;;;;;;20.42;57.67;96444.38;10300679;28;20030;-30
2023/07/02 10:47:56;;;;;;;24.73;16.50;;;;;;;20.38;57.96;96449.53;10301278;28;20035;-32
2023/07/02 10:52:56;;;;;;;22.85;16.23;;;;;;;20.34;58.06;96438.53;10315926;28;20035;-30
2023/07/02 10:58:07;;;;;;;25.80;16.23;;;;;;;20.33;58.30;96441.94;10319643;28;20030;-30
2023/07/02 11:03:16;;;;;;;25.02;16.80;;;;;;;20.32;58.55;96447.03;10313557;28;20423;-31
2023/07/02 11:08:17;;;;;;;26.70;16.83;;;;;;;20.31;58.27;96443.69;10328866;28;20410;-30
2023/07/02 11:13:21;;;;;;;23.63;17.10;;;;;;;20.51;56.99;96437.50;10312788;28;20074;-31
2023/07/02 11:18:21;;;;;;;21.30;15.52;;;;;;;20.60;56.91;96445.00;10261487;28;1096852;-30
2023/07/02 11:23:23;;;;;;;22.50;16.52;;;;;;;20.56;57.31;96443.34;10305066;28;20034;-30
2023/07/02 11:28:24;;;;;;;22.80;15.85;;;;;;;20.45;58.06;96435.00;10302079;28;20027;-30
2023/07/02 11:33:39;;;;;;;24.10;14.77;;;;;;;20.40;58.51;96441.03;10306281;28;20037;-30
2023/07/02 11:38:39;;;;;;;20.60;14.68;;;;;;;20.36;58.71;96439.34;10309921;28;20026;-31
2023/07/02 11:43:39;;;;;;;26.43;16.37;;;;;;;20.33;58.79;96438.59;10303867;28;20042;-31
2023/07/02 11:48:40;;;;;;;21.45;15.00;;;;;;;20.33;58.86;96444.50;10300536;28;20302;-30
2023/07/02 11:53:40;;;;;;;20.08;15.57;;;;;;;20.31;58.88;96445.34;10318174;28;20077;-30
2023/07/02 11:58:42;;;;;;;22.50;14.43;;;;;;;20.41;58.71;96437.63;10309766;28;20034;-31
2023/07/02 12:03:45;;;;;;;21.60;15.15;;;;;;;20.58;57.40;96436.56;10302064;28;20058;-31
2023/07/02 12:08:45;;;;;;;22.52;14.68;;;;;;;20.61;57.70;96435.66;10306748;28;20045;-30
2023/07/02 12:13:46;;;;;;;21.33;14.00;;;;;;;20.54;58.05;96439.16;10344386;28;20034;-30
2023/07/02 12:18:46;;;;;;;17.45;13.73;;;;;;;20.43;58.53;96441.81;10333328;28;20278;-32
2023/07/02 12:23:46;;;;;;;18.83;14.25;;;;;;;20.39;58.94;96430.00;10329416;28;20092;-30
2023/07/02 12:28:47;;;;;;;17.52;13.18;;;;;;;20.38;59.09;96437.66;10332396;28;20030;-30
2023/07/02 12:33:47;;;;;;;18.03;13.17;;;;;;;20.34;59.04;96425.84;10300740;28;20120;-30
2023/07/02 12:38:48;;;;;;;18.57;14.30;;;;;;;20.34;59.27;96430.09;10289915;28;20290;-31
2023/07/02 12:43:48;;;;;;;18.00;13.40;;;;;;;20.31;59.29;96427.56;10320947;28;20034;-30
2023/07/02 12:48:48;;;;;;;20.47;13.87;;;;;;;20.48;58.65;96422.25;10314485;28;21021;-30
2023/07/02 12:53:49;;;;;;;19.53;15.00;;;;;;;20.62;58.15;96438.19;10331287;28;20273;-30
2023/07/02 12:58:51;;;;;;;19.17;13.20;;;;;;;20.61;58.27;96415.31;10331293;28;20784;-30
2023/07/02 13:03:51;;;;;;;16.67;13.25;;;;;;;20.52;58.88;96416.28;10307450;28;20278;-30
2023/07/02 13:08:52;;;;;;;15.57;12.07;;;;;;;20.49;59.21;96415.47;10314873;28;20121;-30
2023/07/02 13:13:53;;;;;;;15.20;11.93;;;;;;;20.51;59.44;96423.91;10312810;28;20398;-30
2023/07/02 13:18:55;;;;;;;15.43;11.67;;;;;;;20.48;59.00;96417.16;10320102;28;20030;-30
2023/07/02 13:23:55;;;;;;;17.20;12.35;;;;;;;20.49;59.39;96423.97;10303530;28;20038;-30
2023/07/02 13:28:56;;;;;;;16.05;13.30;;;;;;;20.48;59.52;96434.97;10304826;28;20043;-31
2023/07/02 13:33:56;;;;;;;14.87;11.97;;;;;;;20.50;59.39;96433.28;10321193;28;20042;-30
2023/07/02 13:38:57;;;;;;;15.37;12.10;;;;;;;20.62;58.74;96429.72;10319890;28;20274;-30
2023/07/02 13:43:57;;;;;;;18.98;13.55;;;;;;;20.71;58.32;96427.88;10297562;28;20297;-30
2023/07/02 13:48:58;;;;;;;15.00;12.33;;;;;;;20.62;58.76;96433.09;10319503;28;20104;-30
2023/07/02 13:53:58;;;;;;;14.53;11.60;;;;;;;20.56;59.32;96433.16;10319302;28;20293;-30
2023/07/02 13:58:58;;;;;;;14.33;11.27;;;;;;;20.54;59.49;96429.81;10320955;28;20429;-31
2023/07/02 14:04:00;;;;;;;14.07;12.00;;;;;;;20.52;59.51;96429.00;10298584;28;20347;-31
2023/07/02 14:09:01;;;;;;;14.98;11.82;;;;;;;20.50;59.49;96418.00;10359059;28;20045;-30
2023/07/02 14:14:01;;;;;;;13.35;10.60;;;;;;;20.50;59.43;96412.94;10339337;28;20041;-31
2023/07/02 14:19:02;;;;;;;15.60;12.18;;;;;;;20.49;59.61;96416.34;10320393;28;20557;-30
2023/07/02 14:24:03;;;;;;;15.55;11.57;;;;;;;20.50;59.63;96418.00;10311190;28;20061;-30
2023/07/02 14:29:03;;;;;;;15.82;12.38;;;;;;;20.66;58.97;96419.50;10304094;28;20034;-31
2023/07/02 14:34:04;;;;;;;17.05;13.10;;;;;;;20.73;58.94;96415.97;10296351;28;20178;-31
2023/07/02 14:39:04;;;;;;;14.98;11.80;;;;;;;20.63;59.34;96411.06;10326673;28;20046;-30
2023/07/02 14:44:05;;;;;;;13.88;10.95;;;;;;;20.56;59.69;96407.75;10318608;28;20026;-30
2023/07/02 14:49:05;;;;;;;13.32;11.20;;;;;;;20.51;59.55;96399.34;10319189;28;20030;-30
2023/07/02 14:54:07;;;;;;;13.68;11.10;;;;;;;20.52;59.60;96395.94;10317733;28;20077;-31
2023/07/02 14:59:08;;;;;;;15.10;11.50;;;;;;;20.50;59.74;96394.25;10319305;28;20045;-30
2023/07/02 15:04:09;;;;;;;14.73;11.63;;;;;;;20.50;59.63;96402.75;10305074;28;20034;-30
2023/07/02 15:09:09;;;;;;;12.20;10.13;;;;;;;20.50;59.90;96400.22;10350851;28;20034;-30
2023/07/02 15:14:10;;;;;;;15.10;11.45;;;;;;;20.54;59.56;96404.38;10342944;28;20319;-31
2023/07/02 15:19:12;;;;;;;14.60;12.10;;;;;;;20.69;59.21;96388.06;10311610;28;20042;-30
2023/07/02 15:24:13;;;;;;;12.27;10.27;;;;;;;20.73;59.08;96389.72;10317247;28;20366;-30
2023/07/02 15:29:13;;;;;;;15.95;11.73;;;;;;;20.62;59.70;96396.66;10320351;28;20039;-30
2023/07/02 15:34:18;;;;;;;12.57;9.50;;;;;;;20.57;59.85;96400.97;10331561;28;20614;-30
2023/07/02 15:39:22;;;;;;;13.45;10.60;;;;;;;20.54;59.88;96395.94;10310269;28;20332;-31
2023/07/02 15:44:22;;;;;;;13.52;10.30;;;;;;;20.50;60.10;96397.66;10339314;28;20030;-31
2023/07/02 15:49:24;;;;;;;13.23;10.73;;;;;;;20.51;59.93;96391.72;10328576;28;20490;-30
2023/07/02 15:54:24;;;;;;;14.63;10.32;;;;;;;20.50;60.16;96387.50;10333563;28;20284;-30
2023/07/02 15:59:27;;;;;;;13.45;10.25;;;;;;;20.48;60.05;96375.66;10327036;28;20462;-30
2023/07/02 16:04:28;;;;;;;14.95;10.70;;;;;;;20.63;59.63;96373.72;10309908;28;20030;-30
2023/07/02 16:09:28;;;;;;;14.27;11.80;;;;;;;20.77;59.58;96392.19;10300987;28;20030;-31
2023/07/02 16:14:30;;;;;;;18.10;11.88;;;;;;;20.74;59.69;96384.63;10309116;28;20089;-31
2023/07/02 16:19:30;;;;;;;16.00;11.30;;;;;;;20.64;59.79;96374.59;10308474;28;20061;-31
2023/07/02 16:24:32;;;;;;;14.33;9.83;;;;;;;20.60;59.70;96368.69;10303622;28;20046;-31
2023/07/02 16:29:33;;;;;;;13.05;10.98;;;;;;;20.58;60.19;96379.75;10317790;28;20392;-31
2023/07/02 16:34:33;;;;;;;12.53;10.10;;;;;;;20.56;60.06;96378.94;10314783;28;20041;-30
2023/07/02 16:39:34;;;;;;;12.40;9.73;;;;;;;20.55;60.12;96385.72;10302315;28;20713;-30
2023/07/02 16:44:37;;;;;;;17.77;11.38;;;;;;;20.59;60.27;96392.47;10298810;28;20392;-31
2023/07/02 16:49:37;;;;;;;18.88;11.82;;;;;;;20.77;59.41;96392.19;10293728;28;20396;-30
2023/07/02 16:54:39;;;;;;;16.80;11.43;;;;;;;20.84;58.44;96383.63;10302716;28;20026;-31
2023/07/02 16:59:39;;;;;;;16.98;11.50;;;;;;;20.77;59.00;96381.16;10303188;28;20117;-31
2023/07/02 17:04:39;;;;;;;15.83;10.83;;;;;;;20.66;59.60;96394.06;10315256;28;20125;-31
2023/07/02 17:09:40;;;;;;;15.87;11.53;;;;;;;20.63;59.59;96389.00;10298171;28;20367;-30
2023/07/02 17:14:43;;;;;;;20.10;12.75;;;;;;;20.60;59.82;96389.03;10291045;28;20681;-30
2023/07/02 17:19:47;;;;;;;17.60;11.57;;;;;;;20.56;59.88;96379.75;10322025;28;20038;-30
2023/07/02 17:24:50;;;;;;;14.82;11.75;;;;;;;20.59;59.76;96382.28;10326640;28;20088;-31
2023/07/02 17:29:52;;;;;;;21.23;13.60;;;;;;;20.59;59.67;96387.38;10287061;28;20027;-30
2023/07/02 17:34:54;;;;;;;15.25;11.32;;;;;;;20.67;58.70;96380.47;10308838;28;20029;-30
2023/07/02 17:39:54;;;;;;;20.85;11.43;;;;;;;20.81;57.65;96382.81;10319225;28;20030;-30
2023/07/02 17:44:58;;;;;;;14.75;10.32;;;;;;;20.82;58.39;96395.50;10298117;28;20034;-31
2023/07/02 17:49:58;;;;;;;16.27;11.25;;;;;;;20.73;58.75;96398.19;10296785;28;20027;-32
2023/07/02 17:55:00;;;;;;;15.47;10.00;;;;;;;20.63;59.21;96383.91;10312021;28;20073;-31
2023/07/02 18:00:00;;;;;;;17.85;10.95;;;;;;;20.63;58.85;96389.00;10302362;28;20394;-30
2023/07/02 18:05:01;;;;;;;21.58;12.00;;;;;;;20.60;59.06;96389.03;10329430;28;20033;-31
2023/07/02 18:10:01;;;;;;;19.17;11.50;;;;;;;20.59;58.80;96384.81;10334021;28;20439;-33
2023/07/02 18:15:02;;;;;;;15.07;10.03;;;;;;;20.58;58.63;96384.84;10333034;28;20061;-31
2023/07/02 18:20:03;;;;;;;13.48;9.50;;;;;;;20.57;58.77;96391.59;10314737;28;20294;-31
2023/07/02 18:25:04;;;;;;;19.98;11.27;;;;;;;20.70;57.06;96385.50;10291741;28;20046;-31
2023/07/02 18:30:05;;;;;;;13.75;10.30;;;;;;;20.83;56.76;96399.75;10299576;28;20415;-31
2023/07/02 18:35:06;;;;;;;13.82;10.15;;;;;;;20.81;57.58;96398.91;10289705;28;20116;-31
2023/07/02 18:40:07;;;;;;;12.43;10.18;;;;;;;20.72;58.03;96393.94;10282609;28;20039;-32
2023/07/02 18:45:08;;;;;;;17.35;10.18;;;;;;;20.63;58.77;96395.81;10298948;28;20039;-32
2023/07/02 18:50:09;;;;;;;13.77;9.40;;;;;;;20.60;58.43;96394.13;10286312;28;20543;-31
2023/07/02 18:55:11;;;;;;;17.15;10.68;;;;;;;20.58;58.64;96406.03;10289087;28;20418;-32
2023/07/02 19:00:12;;;;;;;15.57;10.35;;;;;;;20.57;58.82;96404.31;10282489;28;20098;-31
2023/07/02 19:05:12;;;;;;;13.82;10.10;;;;;;;20.56;58.89;96396.75;10289733;28;20042;-31
2023/07/02 19:10:15;;;;;;;15.73;9.80;;;;;;;20.59;57.71;96401.78;10298024;28;20027;-31
2023/07/02 19:15:15;;;;;;;10.80;8.68;;;;;;;20.75;56.30;96399.00;10292110;28;20554;-31
2023/07/02 19:20:18;;;;;;;13.47;9.83;;;;;;;20.79;56.33;96405.72;10302723;28;20045;-31
2023/07/02 19:25:20;;;;;;;11.38;8.75;;;;;;;20.70;57.68;96405.84;10297553;28;20340;-31
2023/07/02 19:30:20;;;;;;;12.95;9.07;;;;;;;20.61;58.64;96408.53;10300757;28;20039;-31
2023/07/02 19:35:22;;;;;;;13.45;9.65;;;;;;;20.58;58.39;96420.44;10298318;28;20042;-31
2023/07/02 19:40:24;;;;;;;12.40;8.63;;;;;;;20.55;58.94;96423.03;10310426;28;20447;-31
2023/07/02 19:45:24;;;;;;;12.27;8.77;;;;;;;20.55;58.84;96431.50;10301655;28;20043;-31
2023/07/02 19:50:25;;;;;;;12.32;8.93;;;;;;;20.54;58.81;96442.53;10317194;28;20038;-31
2023/07/02 19:55:25;;;;;;;9.40;6.85;;;;;;;20.34;57.55;96450.44;10332750;28;20525;-31
2023/07/02 20:00:26;;;;;;;15.65;8.93;;;;;;;19.68;54.61;96466.31;10310284;28;20113;-31
2023/07/02 20:05:26;;;;;;;13.55;9.35;;;;;;;19.19;55.55;96472.63;10305936;28;20031;-30
2023/07/02 20:10:27;;;;;;;15.10;9.13;;;;;;;19.42;55.25;96473.31;10301760;28;20129;-30
2023/07/02 20:15:27;;;;;;;13.18;8.50;;;;;;;19.37;54.31;96469.97;10306378;28;20314;-30
2023/07/02 20:20:30;;;;;;;18.13;9.43;;;;;;;19.32;54.23;96476.75;10300336;28;20039;-33
2023/07/02 20:25:36;;;;;;;15.73;8.90;;;;;;;19.26;53.88;96479.34;10300042;28;20864;-31
2023/07/02 20:30:37;;;;;;;12.23;8.30;;;;;;;19.24;53.43;96488.69;10315378;28;20495;-30
2023/07/02 20:35:40;;;;;;;12.93;8.05;;;;;;;19.19;52.92;96485.31;10308080;28;20122;-31
2023/07/02 20:40:41;;;;;;;11.63;7.93;;;;;;;19.11;53.70;96487.88;10294707;28;20035;-31
2023/07/02 20:45:41;;;;;;;12.60;8.27;;;;;;;19.03;53.81;96486.22;10320263;28;20039;-31
2023/07/02 20:50:42;;;;;;;16.10;8.73;;;;;;;18.99;53.46;96492.19;10296230;28;20402;-30
2023/07/02 20:55:42;;;;;;;10.07;7.32;;;;;;;18.98;53.10;96490.47;10291459;28;20282;-31
2023/07/02 21:00:43;;;;;;;11.27;7.07;;;;;;;18.99;53.05;96497.25;10307870;28;20091;-31
2023/07/02 21:05:43;;;;;;;14.53;8.00;;;;;;;18.98;53.23;96496.41;10294522;28;20031;-30
2023/07/02 21:10:43;;;;;;;12.00;7.40;;;;;;;18.91;53.09;96504.06;10300871;28;20286;-30
2023/07/02 21:15:56;;;;;;;14.73;8.33;;;;;;;18.83;53.26;96510.88;10310549;28;20300;-30
2023/07/02 21:20:56;;;;;;;11.20;8.20;;;;;;;18.81;53.59;96497.31;10303564;28;20798;-30
2023/07/02 21:25:59;;;;;;;15.48;8.38;;;;;;;18.75;53.24;96505.81;10315607;28;20071;-30
2023/07/02 21:30:59;;;;;;;14.35;7.65;;;;;;;18.70;53.28;96504.16;10300228;28;20035;-30
2023/07/02 21:36:07;;;;;;;14.18;8.25;;;;;;;18.72;53.38;96499.91;10307919;28;20093;-31
2023/07/02 21:41:08;;;;;;;9.40;7.05;;;;;;;18.68;53.60;96505.88;10300738;28;20129;-31
2023/07/02 21:46:11;;;;;;;12.63;7.28;;;;;;;18.63;53.89;96507.56;10297421;28;20034;-30
2023/07/02 21:51:11;;;;;;;12.52;7.70;;;;;;;18.58;53.79;96516.91;10296894;28;20367;-30
2023/07/02 21:56:14;;;;;;;12.53;7.20;;;;;;;18.60;53.30;96512.66;10296933;28;20065;-32
2023/07/02 22:01:15;;;;;;;11.93;6.80;;;;;;;18.60;52.99;96512.66;10319653;28;20299;-32
2023/07/02 22:06:16;;;;;;;10.70;6.50;;;;;;;18.50;53.40;96509.28;10304283;28;20041;-30
2023/07/02 22:11:17;;;;;;;12.50;7.30;;;;;;;18.49;53.53;96509.31;10304269;28;20035;-30
2023/07/02 22:16:17;;;;;;;12.33;6.93;;;;;;;18.46;53.42;96519.44;10301395;28;20031;-30
2023/07/02 22:21:18;;;;;;;15.30;7.00;;;;;;;18.40;53.63;96515.25;10311655;28;20289;-30
2023/07/02 22:26:19;;;;;;;14.38;7.07;;;;;;;18.37;53.92;96509.34;10287649;28;20475;-30
2023/07/02 22:31:20;;;;;;;15.40;7.07;;;;;;;18.35;53.60;96513.59;10302441;28;20046;-31
2023/07/02 22:36:21;;;;;;;12.40;6.85;;;;;;;18.28;54.28;96516.94;10287338;28;20386;-32
2023/07/02 22:41:21;;;;;;;12.93;7.68;;;;;;;18.24;54.42;96520.34;10293076;28;20042;-31
2023/07/02 22:46:22;;;;;;;13.02;7.50;;;;;;;18.19;54.38;96529.63;10294833;28;20487;-31
2023/07/02 22:51:22;;;;;;;11.75;7.13;;;;;;;18.21;54.81;96533.84;10302511;28;20401;-31
2023/07/02 22:56:23;;;;;;;11.83;7.00;;;;;;;18.20;54.95;96541.44;10296462;28;20026;-31
2023/07/02 23:01:23;;;;;;;13.03;7.63;;;;;;;18.17;54.67;96549.06;10302419;28;20290;-31